createdAt,value
2019-04-14T00:01:56.819Z,14.60
2019-04-14T00:04:42.256Z,14.40
2019-04-14T00:07:12.192Z,15.03
2019-04-14T00:09:41.378Z,14.43
2019-04-14T00:12:12.100Z,15.23
2019-04-14T00:14:41.036Z,14.15
2019-04-14T00:17:10.815Z,15.60
2019-04-14T00:19:39.858Z,14.20
2019-04-14T00:22:09.437Z,14.93
2019-04-14T00:24:38.411Z,14.75
2019-04-14T00:27:08.449Z,17.00
2019-04-14T00:29:37.551Z,15.55
2019-04-14T00:32:07.362Z,15.08
2019-04-14T00:35:01.823Z,16.05
2019-04-14T00:37:38.766Z,16.10
2019-04-14T00:40:10.895Z,14.55
2019-04-14T00:42:51.961Z,15.38
2019-04-14T00:45:38.968Z,15.70
2019-04-14T00:48:11.087Z,15.35
2019-04-14T00:50:36.851Z,15.70
2019-04-14T00:53:05.657Z,15.00
2019-04-14T00:55:35.666Z,15.55
2019-04-14T00:58:05.902Z,17.40
2019-04-14T01:00:35.154Z,14.53
2019-04-14T01:03:04.790Z,15.38
2019-04-14T01:05:34.839Z,17.00
2019-04-14T01:08:05.253Z,16.32
2019-04-14T01:10:34.454Z,17.80
2019-04-14T01:13:03.513Z,17.75
2019-04-14T01:15:44.841Z,15.65
2019-04-14T01:18:03.616Z,16.60
2019-04-14T01:20:33.896Z,16.37
2019-04-14T01:23:04.080Z,16.37
2019-04-14T01:25:34.533Z,19.32
2019-04-14T01:28:04.633Z,15.78
2019-04-14T01:30:33.573Z,17.48
2019-04-14T01:33:03.286Z,19.30
2019-04-14T01:35:33.442Z,17.07
2019-04-14T01:38:03.690Z,18.20
2019-04-14T01:40:33.734Z,16.60
2019-04-14T01:43:03.789Z,20.82
2019-04-14T01:45:33.792Z,17.57
2019-04-14T01:48:03.858Z,17.80
2019-04-14T01:50:40.924Z,17.07
2019-04-14T01:53:16.159Z,17.95
2019-04-14T01:55:53.199Z,18.10
2019-04-14T01:58:27.157Z,17.52
2019-04-14T02:01:13.452Z,18.50
2019-04-14T02:03:43.352Z,18.02
2019-04-14T02:06:13.532Z,20.80
2019-04-14T02:08:43.653Z,19.07
2019-04-14T02:11:13.692Z,17.98
2019-04-14T02:13:42.787Z,18.00
2019-04-14T02:16:22.997Z,18.37
2019-04-14T02:18:42.719Z,17.52
2019-04-14T02:21:12.872Z,18.27
2019-04-14T02:23:43.230Z,19.60
2019-04-14T02:26:13.215Z,17.92
2019-04-14T02:28:42.281Z,17.80
2019-04-14T02:31:24.287Z,18.25
2019-04-14T02:34:10.946Z,17.30
2019-04-14T02:36:50.135Z,17.23
2019-04-14T02:42:07.041Z,18.45
2019-04-14T02:49:19.400Z,17.42
2019-04-14T02:51:52.058Z,17.80
2019-04-14T02:54:22.842Z,17.67
2019-04-14T02:56:52.487Z,17.50
2019-04-14T02:59:19.804Z,16.62
2019-04-14T03:02:09.957Z,16.67
2019-04-14T03:04:21.684Z,17.05
2019-04-14T03:06:55.142Z,17.20
2019-04-14T03:09:32.064Z,16.55
2019-04-14T03:11:51.790Z,17.27
2019-04-14T03:17:14.436Z,17.70
2019-04-14T03:20:07.162Z,18.48
2019-04-14T03:22:45.978Z,17.45
2019-04-14T03:25:21.128Z,18.23
2019-04-14T03:28:07.242Z,18.52
2019-04-14T03:30:58.877Z,17.02
2019-04-14T03:43:10.027Z,17.85
2019-04-14T03:45:43.323Z,17.52
2019-04-14T03:48:34.612Z,18.20
2019-04-14T03:50:36.819Z,17.48
2019-04-14T03:55:55.536Z,17.30
2019-04-14T03:58:20.488Z,16.67
2019-04-14T04:00:49.498Z,17.37
2019-04-14T04:03:19.521Z,17.53
2019-04-14T04:05:49.875Z,17.20
2019-04-14T04:08:20.034Z,16.67
2019-04-14T04:10:49.216Z,18.73
2019-04-14T04:13:19.303Z,19.37
2019-04-14T04:15:49.749Z,17.95
2019-04-14T04:18:22.171Z,17.60
2019-04-14T04:21:19.138Z,16.90
2019-04-14T04:23:53.317Z,17.20
2019-04-14T04:26:30.752Z,17.57
2019-04-14T04:29:07.027Z,17.35
2019-04-14T04:31:48.162Z,19.37
2019-04-14T04:34:33.700Z,18.13
2019-04-14T04:37:27.930Z,18.95
2019-04-14T04:39:58.279Z,18.92
2019-04-14T04:42:27.151Z,20.68
2019-04-14T04:44:55.939Z,18.70
2019-04-14T04:47:25.229Z,18.80
2019-04-14T04:49:55.374Z,20.17
2019-04-14T04:52:24.383Z,19.37
2019-04-14T04:54:53.786Z,20.17
2019-04-14T04:57:22.754Z,19.70
2019-04-14T04:59:51.766Z,20.00
2019-04-14T05:02:22.000Z,18.57
2019-04-14T05:04:51.193Z,19.40
2019-04-14T05:07:20.888Z,18.00
2019-04-14T05:10:08.750Z,20.30
2019-04-14T05:13:03.051Z,19.37
2019-04-14T05:15:37.981Z,18.90
2019-04-14T05:18:07.477Z,19.15
2019-04-14T05:20:37.689Z,18.92
2019-04-14T05:23:07.982Z,19.23
2019-04-14T05:25:37.065Z,20.03
2019-04-14T05:28:06.861Z,18.17
2019-04-14T05:30:37.075Z,19.02
2019-04-14T05:33:07.368Z,18.75
2019-04-14T05:35:36.508Z,18.77
2019-04-14T05:38:06.219Z,18.07
2019-04-14T05:40:36.337Z,20.20
2019-04-14T05:43:06.636Z,18.20
2019-04-14T05:45:35.662Z,19.67
2019-04-14T05:48:05.363Z,17.80
2019-04-14T05:50:35.625Z,17.37
2019-04-14T05:53:05.072Z,17.00
2019-04-14T05:55:35.283Z,18.30
2019-04-14T05:58:05.616Z,17.92
2019-04-14T06:00:36.368Z,16.65
2019-04-14T06:03:05.956Z,16.67
2019-04-14T06:05:36.065Z,15.70
2019-04-14T06:08:05.205Z,15.40
2019-04-14T06:10:34.254Z,16.30
2019-04-14T06:13:03.063Z,14.98
2019-04-14T06:15:31.912Z,15.55
2019-04-14T06:18:00.880Z,14.45
2019-04-14T06:20:29.920Z,14.35
2019-04-14T06:22:58.891Z,15.78
2019-04-14T06:25:27.688Z,14.05
2019-04-14T06:27:56.535Z,14.43
2019-04-14T06:31:02.797Z,14.78
2019-04-14T06:33:55.574Z,14.50
2019-04-14T06:36:46.461Z,16.80
2019-04-14T06:39:21.621Z,14.70
2019-04-14T06:41:50.709Z,13.38
2019-04-14T06:44:19.611Z,14.60
2019-04-14T06:46:48.465Z,14.45
2019-04-14T06:49:17.329Z,15.10
2019-04-14T06:51:46.164Z,14.20
2019-04-14T06:54:15.222Z,14.15
2019-04-14T06:56:44.064Z,15.30
2019-04-14T06:59:12.891Z,14.50
2019-04-14T07:01:41.711Z,16.27
2019-04-14T07:04:10.742Z,14.53
2019-04-14T07:06:45.721Z,14.20
2019-04-14T07:09:14.646Z,14.35
2019-04-14T07:11:43.694Z,14.90
2019-04-14T07:14:12.599Z,14.95
2019-04-14T07:16:41.637Z,15.30
2019-04-14T07:19:10.553Z,17.50
2019-04-14T07:21:39.385Z,16.12
2019-04-14T07:24:08.198Z,17.27
2019-04-14T07:26:37.319Z,19.27
2019-04-14T07:29:06.333Z,19.12
2019-04-14T07:31:51.774Z,18.25
2019-04-14T07:34:42.855Z,16.67
2019-04-14T07:37:36.557Z,17.20
2019-04-14T07:40:22.616Z,17.57
2019-04-14T07:42:56.168Z,17.55
2019-04-14T07:45:29.011Z,20.90
2019-04-14T07:48:17.008Z,19.03
2019-04-14T07:51:04.963Z,18.52
2019-04-14T07:53:41.192Z,18.67
2019-04-14T07:56:19.908Z,18.80
2019-04-14T07:59:03.711Z,16.50
2019-04-14T08:01:48.436Z,18.67
2019-04-14T08:04:20.389Z,19.05
2019-04-14T08:06:50.795Z,18.73
2019-04-14T08:09:19.786Z,19.90
2019-04-14T08:11:48.621Z,18.67
2019-04-14T08:14:17.548Z,18.82
2019-04-14T08:16:47.245Z,18.92
2019-04-14T08:19:16.669Z,18.70
2019-04-14T08:21:45.547Z,20.23
2019-04-14T08:24:15.653Z,21.27
2019-04-14T08:26:45.132Z,19.48
2019-04-14T08:29:14.228Z,20.25
2019-04-14T08:31:43.035Z,20.97
2019-04-14T08:34:12.247Z,19.50
2019-04-14T08:36:41.212Z,20.45
2019-04-14T08:39:10.310Z,20.40
2019-04-14T08:41:45.950Z,20.08
2019-04-14T08:44:19.974Z,18.70
2019-04-14T08:47:09.425Z,20.85
2019-04-14T08:49:52.334Z,24.43
2019-04-14T08:52:50.582Z,22.30
2019-04-14T08:55:25.512Z,20.53
2019-04-14T08:58:31.864Z,21.27
2019-04-14T09:01:09.065Z,19.70
2019-04-14T09:03:46.808Z,20.08
2019-04-14T09:06:22.001Z,20.40
2019-04-14T09:09:08.799Z,21.73
2019-04-14T09:11:48.764Z,20.62
2019-04-14T09:14:17.807Z,18.57
2019-04-14T09:16:47.061Z,20.15
2019-04-14T09:19:15.946Z,19.60
2019-04-14T09:21:44.907Z,20.03
2019-04-14T09:24:13.796Z,18.23
2019-04-14T09:26:42.772Z,20.10
2019-04-14T09:29:11.801Z,20.20
2019-04-14T09:31:40.801Z,21.02
2019-04-14T09:34:12.764Z,21.40
2019-04-14T09:36:41.762Z,20.17
2019-04-14T09:39:13.118Z,21.57
2019-04-14T09:41:42.010Z,19.73
2019-04-14T09:44:10.900Z,20.77
2019-04-14T09:46:40.129Z,20.90
2019-04-14T09:49:09.070Z,21.05
2019-04-14T09:51:38.118Z,21.87
2019-04-14T09:54:07.104Z,21.07
2019-04-14T09:56:38.783Z,19.00
2019-04-14T09:59:07.801Z,19.98
2019-04-14T10:01:36.754Z,21.30
2019-04-14T10:04:05.861Z,22.75
2019-04-14T10:06:34.766Z,22.58
2019-04-14T10:09:05.226Z,21.20
2019-04-14T10:11:34.271Z,21.75
2019-04-14T10:14:03.304Z,21.85
2019-04-14T10:16:32.296Z,20.45
2019-04-14T10:19:01.290Z,21.20
2019-04-14T10:21:31.098Z,20.97
2019-04-14T10:23:59.991Z,23.05
2019-04-14T10:26:29.823Z,21.33
2019-04-14T10:28:58.646Z,20.32
2019-04-14T10:31:27.671Z,19.62
2019-04-14T10:33:56.599Z,20.75
2019-04-14T10:36:25.539Z,21.85
2019-04-14T10:38:54.452Z,21.90
2019-04-14T10:41:23.458Z,23.73
2019-04-14T10:43:52.404Z,20.40
2019-04-14T10:46:21.254Z,20.20
2019-04-14T10:48:50.128Z,21.40
2019-04-14T10:51:29.563Z,21.65
2019-04-14T10:53:49.585Z,20.88
2019-04-14T10:56:18.639Z,23.07
2019-04-14T10:58:47.527Z,21.87
2019-04-14T11:01:16.362Z,20.90
2019-04-14T11:03:45.299Z,22.02
2019-04-14T11:06:23.326Z,20.40
2019-04-14T11:08:52.373Z,20.52
2019-04-14T11:11:21.288Z,20.90
2019-04-14T11:13:50.106Z,22.13
2019-04-14T11:16:19.007Z,21.62
2019-04-14T11:18:48.007Z,19.57
2019-04-14T11:21:16.794Z,20.23
2019-04-14T11:23:45.804Z,19.77
2019-04-14T11:26:15.538Z,20.60
2019-04-14T11:28:44.434Z,20.70
2019-04-14T11:31:15.042Z,20.60
2019-04-14T11:34:00.617Z,20.08
2019-04-14T11:36:54.562Z,25.25
2019-04-14T11:39:23.589Z,20.20
2019-04-14T11:41:52.809Z,20.60
2019-04-14T11:44:24.585Z,19.33
2019-04-14T11:46:53.462Z,19.10
2019-04-14T11:49:22.312Z,18.17
2019-04-14T11:51:55.594Z,22.62
2019-04-14T11:54:21.872Z,18.45
2019-04-14T11:56:50.827Z,19.27
2019-04-14T11:59:23.834Z,17.90
2019-04-14T12:01:59.779Z,18.10
2019-04-14T12:04:35.223Z,17.82
2019-04-14T12:07:22.348Z,17.87
2019-04-14T12:10:16.417Z,17.17
2019-04-14T12:12:45.523Z,17.42
2019-04-14T12:15:16.621Z,18.30
2019-04-14T12:17:45.481Z,17.02
2019-04-14T12:20:14.501Z,17.70
2019-04-14T12:22:43.346Z,15.90
2019-04-14T12:25:12.457Z,16.70
2019-04-14T12:27:42.012Z,18.02
2019-04-14T12:30:13.590Z,23.98
2019-04-14T12:32:42.901Z,18.10
2019-04-14T12:35:13.118Z,16.85
2019-04-14T12:37:42.275Z,18.90
2019-04-14T12:40:11.351Z,18.95
2019-04-14T12:42:55.960Z,16.62
2019-04-14T12:45:50.032Z,16.73
2019-04-14T12:48:44.151Z,15.95
2019-04-14T12:51:20.470Z,15.25
2019-04-14T12:53:49.038Z,16.65
2019-04-14T12:56:22.111Z,16.12
2019-04-14T12:59:13.346Z,16.45
2019-04-14T13:01:49.128Z,16.48
2019-04-14T13:04:18.189Z,14.97
2019-04-14T13:06:47.090Z,16.27
2019-04-14T13:09:16.498Z,16.15
2019-04-14T13:11:45.497Z,16.55
2019-04-14T13:14:14.590Z,15.35
2019-04-14T13:16:43.443Z,14.30
2019-04-14T13:19:12.291Z,14.78
2019-04-14T13:21:41.221Z,15.60
2019-04-14T13:24:10.025Z,15.90
2019-04-14T13:26:39.004Z,14.78
2019-04-14T13:29:07.851Z,15.45
2019-04-14T13:31:36.805Z,15.40
2019-04-14T13:34:05.801Z,15.08
2019-04-14T13:36:34.830Z,15.40
2019-04-14T13:39:06.271Z,14.40
2019-04-14T13:41:35.751Z,14.10
2019-04-14T13:44:04.989Z,13.98
2019-04-14T13:46:33.983Z,14.80
2019-04-14T13:49:02.971Z,14.00
2019-04-14T13:51:31.941Z,13.83
2019-04-14T13:54:00.964Z,13.90
2019-04-14T13:56:30.089Z,13.40
2019-04-14T13:59:00.744Z,13.88
2019-04-14T14:01:29.780Z,14.07
2019-04-14T14:03:58.682Z,11.80
2019-04-14T14:06:27.492Z,14.55
2019-04-14T14:08:56.398Z,13.35
2019-04-14T14:11:37.745Z,13.10
2019-04-14T14:14:16.520Z,13.55
2019-04-14T14:16:57.580Z,13.88
2019-04-14T14:19:48.022Z,14.10
2019-04-14T14:22:35.317Z,13.15
2019-04-14T14:25:14.168Z,12.60
2019-04-14T14:27:43.326Z,12.58
2019-04-14T14:30:14.112Z,12.50
2019-04-14T14:32:43.091Z,11.88
2019-04-14T14:35:12.184Z,12.78
2019-04-14T14:37:41.075Z,12.43
2019-04-14T14:40:10.150Z,13.60
2019-04-14T14:42:39.035Z,13.53
2019-04-14T14:45:33.871Z,14.15
2019-04-14T14:48:14.053Z,13.58
2019-04-14T14:51:11.164Z,13.78
2019-04-14T14:53:39.975Z,13.60
2019-04-14T14:56:08.915Z,13.45
2019-04-14T14:58:37.825Z,13.53
2019-04-14T15:01:07.126Z,14.70
2019-04-14T15:03:36.063Z,13.83
2019-04-14T15:06:06.374Z,13.55
2019-04-14T15:08:35.694Z,14.30
2019-04-14T15:11:05.143Z,13.40
2019-04-14T15:13:34.172Z,12.70
2019-04-14T15:16:03.095Z,11.88
2019-04-14T15:18:32.072Z,12.75
2019-04-14T15:21:01.066Z,13.72
2019-04-14T15:23:30.086Z,16.37
2019-04-14T15:25:59.297Z,12.82
2019-04-14T15:28:28.277Z,13.20
2019-04-14T15:30:57.177Z,11.90
2019-04-14T15:33:26.269Z,12.90
2019-04-14T15:35:55.522Z,13.33
2019-04-14T15:38:24.533Z,11.90
2019-04-14T15:40:53.458Z,13.08
2019-04-14T15:43:22.477Z,11.93
2019-04-14T15:45:51.431Z,11.78
2019-04-14T15:48:20.414Z,12.60
2019-04-14T15:50:49.500Z,12.00
2019-04-14T15:53:18.329Z,12.53
2019-04-14T15:55:47.360Z,12.50
2019-04-14T15:58:30.487Z,12.28
2019-04-14T16:01:17.167Z,13.10
2019-04-14T16:04:05.252Z,13.58
2019-04-14T16:06:48.463Z,12.37
2019-04-14T16:09:38.537Z,13.10
2019-04-14T16:12:20.148Z,14.55
2019-04-14T16:15:07.001Z,15.00
2019-04-14T16:18:08.667Z,12.90
2019-04-14T16:20:39.196Z,12.60
2019-04-14T16:23:08.195Z,13.38
2019-04-14T16:25:49.197Z,13.30
2019-04-14T16:28:40.745Z,13.35
2019-04-14T16:31:45.906Z,12.70
2019-04-14T16:34:31.094Z,13.70
2019-04-14T16:37:00.600Z,13.50
2019-04-14T16:39:29.664Z,12.78
2019-04-14T16:41:59.082Z,13.58
2019-04-14T16:44:28.080Z,18.50
2019-04-14T16:46:57.248Z,13.75
2019-04-14T16:49:26.329Z,13.10
2019-04-14T16:52:21.237Z,13.32
2019-04-14T16:54:58.977Z,13.22
2019-04-14T16:57:53.271Z,13.80
2019-04-14T17:00:28.725Z,12.95
2019-04-14T17:02:58.082Z,13.90
2019-04-14T17:05:27.025Z,13.93
2019-04-14T17:07:56.044Z,14.18
2019-04-14T17:10:25.219Z,13.30
2019-04-14T17:12:54.532Z,13.38
2019-04-14T17:15:38.082Z,14.78
2019-04-14T17:18:13.251Z,14.87
2019-04-14T17:21:02.206Z,12.95
2019-04-14T17:23:41.572Z,13.45
2019-04-14T17:26:29.886Z,12.88
2019-04-14T17:29:07.186Z,12.28
2019-04-14T17:31:57.256Z,41.20
2019-04-14T17:34:39.517Z,12.85
2019-04-14T17:37:36.696Z,12.50
2019-04-14T17:40:28.532Z,12.70
2019-04-14T17:43:06.906Z,13.20
2019-04-14T17:45:41.108Z,12.67
2019-04-14T17:48:41.381Z,13.25
2019-04-14T17:51:24.756Z,13.98
2019-04-14T17:54:12.899Z,13.03
2019-04-14T17:56:47.277Z,11.45
2019-04-14T17:59:25.535Z,12.82
2019-04-14T18:02:04.832Z,12.75
2019-04-14T18:04:53.007Z,15.05
2019-04-14T18:07:29.319Z,12.30
2019-04-14T18:10:14.990Z,12.90
2019-04-14T18:13:05.996Z,12.47
2019-04-14T18:15:43.401Z,12.25
2019-04-14T18:18:30.737Z,12.33
2019-04-14T18:21:04.838Z,13.00
2019-04-14T18:23:33.935Z,13.10
2019-04-14T18:26:03.082Z,10.32
2019-04-14T18:28:47.162Z,10.25
2019-04-14T18:31:33.774Z,11.55
2019-04-14T18:34:27.729Z,12.70
2019-04-14T18:37:04.618Z,10.70
2019-04-14T18:39:52.868Z,12.28
2019-04-14T18:42:47.432Z,12.60
2019-04-14T18:45:38.367Z,10.80
2019-04-14T18:48:15.587Z,11.63
2019-04-14T18:51:03.669Z,10.13
2019-04-14T18:53:54.711Z,10.40
2019-04-14T18:56:41.563Z,11.03
2019-04-14T18:59:26.939Z,10.23
2019-04-14T19:01:57.627Z,10.75
2019-04-14T19:04:26.623Z,9.13
2019-04-14T19:06:55.724Z,9.83
2019-04-14T19:09:24.835Z,10.15
2019-04-14T19:12:05.618Z,8.40
2019-04-14T19:14:36.797Z,8.43
2019-04-14T19:17:12.867Z,10.58
2019-04-14T19:19:46.384Z,9.10
2019-04-14T19:22:18.369Z,11.20
2019-04-14T19:24:47.384Z,7.70
2019-04-14T19:27:16.259Z,8.28
2019-04-14T19:29:45.255Z,7.97
2019-04-14T19:32:14.190Z,7.60
2019-04-14T19:34:43.183Z,7.03
2019-04-14T19:37:12.245Z,7.12
2019-04-14T19:39:41.391Z,7.87
2019-04-14T19:42:10.329Z,8.35
2019-04-14T19:44:39.350Z,7.55
2019-04-14T19:47:08.403Z,7.92
2019-04-14T19:49:37.422Z,7.10
2019-04-14T19:52:06.448Z,10.65
2019-04-14T19:54:35.642Z,8.00
2019-04-14T19:57:05.001Z,7.72
2019-04-14T19:59:34.317Z,8.83
2019-04-14T20:02:03.306Z,9.98
2019-04-14T20:04:33.132Z,9.98
2019-04-14T20:07:02.223Z,8.43
2019-04-14T20:09:31.988Z,7.78
2019-04-14T20:12:01.237Z,8.50
2019-04-14T20:14:30.518Z,9.78
2019-04-14T20:17:19.003Z,8.13
2019-04-14T20:20:13.749Z,9.88
2019-04-14T20:23:00.703Z,7.60
2019-04-14T20:25:58.068Z,6.90
2019-04-14T20:28:49.695Z,10.55
2019-04-14T20:31:29.508Z,8.85
2019-04-14T20:33:58.505Z,7.87
2019-04-14T20:36:31.008Z,8.03
2019-04-14T20:39:00.302Z,9.20
2019-04-14T20:41:29.795Z,12.15
2019-04-14T20:44:01.636Z,8.68
2019-04-14T20:46:29.453Z,8.35
2019-04-14T20:48:58.620Z,6.03
2019-04-14T20:51:27.691Z,8.55
2019-04-14T20:53:56.706Z,10.10
2019-04-14T20:56:27.640Z,7.53
2019-04-14T20:58:56.237Z,8.25
2019-04-14T21:01:27.008Z,8.25
2019-04-14T21:04:16.255Z,7.42
2019-04-14T21:07:17.415Z,9.60
2019-04-14T21:09:56.277Z,8.63
2019-04-14T21:12:37.071Z,7.83
2019-04-14T21:15:40.963Z,7.45
2019-04-14T21:18:13.168Z,8.03
2019-04-14T21:20:58.588Z,6.80
2019-04-14T21:23:44.169Z,8.15
2019-04-14T21:26:37.622Z,7.67
2019-04-14T21:29:14.525Z,7.50
2019-04-14T21:31:51.735Z,6.75
2019-04-14T21:34:44.916Z,8.40
2019-04-14T21:37:21.386Z,8.00
2019-04-14T21:40:18.071Z,10.05
2019-04-14T21:42:47.025Z,7.65
2019-04-14T21:45:15.966Z,9.00
2019-04-14T21:47:48.032Z,7.72
2019-04-14T21:50:17.193Z,8.18
2019-04-14T21:52:49.527Z,6.70
2019-04-14T21:55:18.751Z,7.78
2019-04-14T21:57:53.507Z,7.65
2019-04-14T22:01:11.114Z,8.98
2019-04-14T22:03:50.974Z,9.28
2019-04-14T22:06:32.100Z,8.43
2019-04-14T22:09:01.104Z,8.38
2019-04-14T22:11:30.132Z,7.35
2019-04-14T22:13:58.961Z,7.78
2019-04-14T22:16:27.960Z,8.18
2019-04-14T22:18:56.760Z,7.05
2019-04-14T22:21:25.567Z,7.67
2019-04-14T22:24:01.235Z,8.75
2019-04-14T22:26:26.356Z,7.00
2019-04-14T22:28:55.528Z,7.55
2019-04-14T22:31:24.429Z,7.83
2019-04-14T22:33:53.408Z,9.15
2019-04-14T22:36:22.202Z,12.20
2019-04-14T22:38:51.008Z,8.93
2019-04-14T22:41:19.766Z,7.97
2019-04-14T22:43:48.534Z,7.45
2019-04-14T22:46:17.382Z,7.90
2019-04-14T22:48:46.243Z,7.95
2019-04-14T22:51:15.104Z,8.30
2019-04-14T22:53:43.968Z,8.40
2019-04-14T22:56:12.921Z,8.63
2019-04-14T22:58:41.804Z,9.03
2019-04-14T23:01:17.609Z,11.80
2019-04-14T23:04:16.565Z,9.60
2019-04-14T23:07:03.497Z,8.88
2019-04-14T23:09:44.108Z,9.30
2019-04-14T23:12:26.848Z,9.73
2019-04-14T23:15:17.600Z,7.85
2019-04-14T23:18:14.550Z,10.37
2019-04-14T23:20:51.076Z,9.03
2019-04-14T23:23:34.147Z,8.90
2019-04-14T23:26:03.047Z,9.23
2019-04-14T23:28:32.000Z,9.30
2019-04-14T23:31:01.728Z,9.48
2019-04-14T23:33:30.884Z,8.80
2019-04-14T23:35:59.895Z,8.83
2019-04-14T23:38:28.905Z,9.88
2019-04-14T23:41:07.758Z,8.58
2019-04-14T23:43:36.652Z,8.83
2019-04-14T23:46:05.635Z,9.80
2019-04-14T23:48:34.492Z,8.10
2019-04-14T23:51:03.407Z,8.08
2019-04-14T23:53:32.249Z,8.90
2019-04-14T23:56:01.010Z,8.38
2019-04-14T23:58:29.882Z,9.38
